sensor_id;sensor_type;location;lat;lon;timestamp;P1;durP1;ratioP1;P2;durP2;ratioP2
20880;SDS011;10600;53.096;8.802;2023-04-03T00:00:39;7.43;;;2.85;;
20880;SDS011;10600;53.096;8.802;2023-04-03T00:01:40;6.85;;;2.65;;
20880;SDS011;10600;53.096;8.802;2023-04-03T00:02:41;7.82;;;2.95;;
20880;SDS011;10600;53.096;8.802;2023-04-03T00:03:41;7.93;;;3.10;;
20880;SDS011;10600;53.096;8.802;2023-04-03T00:04:42;7.57;;;3.05;;
20880;SDS011;10600;53.096;8.802;2023-04-03T00:05:43;7.78;;;2.78;;
20880;SDS011;10600;53.096;8.802;2023-04-03T00:06:44;9.10;;;3.63;;
20880;SDS011;10600;53.096;8.802;2023-04-03T00:07:44;10.05;;;3.53;;
20880;SDS011;10600;53.096;8.802;2023-04-03T00:08:45;5.93;;;3.35;;
20880;SDS011;10600;53.096;8.802;2023-04-03T00:09:46;7.32;;;3.10;;
20880;SDS011;10600;53.096;8.802;2023-04-03T00:10:47;6.30;;;2.40;;
20880;SDS011;10600;53.096;8.802;2023-04-03T00:11:48;9.75;;;2.72;;
20880;SDS011;10600;53.096;8.802;2023-04-03T00:12:48;7.00;;;2.67;;
20880;SDS011;10600;53.096;8.802;2023-04-03T00:13:49;6.20;;;2.40;;
20880;SDS011;10600;53.096;8.802;2023-04-03T00:14:50;8.60;;;4.13;;
20880;SDS011;10600;53.096;8.802;2023-04-03T00:15:51;9.25;;;2.65;;
20880;SDS011;10600;53.096;8.802;2023-04-03T00:16:52;9.77;;;3.17;;
20880;SDS011;10600;53.096;8.802;2023-04-03T00:17:52;9.18;;;3.10;;
20880;SDS011;10600;53.096;8.802;2023-04-03T00:18:53;9.88;;;3.42;;
20880;SDS011;10600;53.096;8.802;2023-04-03T00:19:53;8.75;;;3.03;;
20880;SDS011;10600;53.096;8.802;2023-04-03T00:20:54;8.73;;;2.85;;
20880;SDS011;10600;53.096;8.802;2023-04-03T00:21:55;6.88;;;2.78;;
20880;SDS011;10600;53.096;8.802;2023-04-03T00:22:56;9.70;;;3.67;;
20880;SDS011;10600;53.096;8.802;2023-04-03T00:23:57;6.65;;;2.90;;
20880;SDS011;10600;53.096;8.802;2023-04-03T00:24:57;8.05;;;2.83;;
20880;SDS011;10600;53.096;8.802;2023-04-03T00:25:58;9.70;;;3.00;;
20880;SDS011;10600;53.096;8.802;2023-04-03T00:26:59;10.50;;;2.85;;
20880;SDS011;10600;53.096;8.802;2023-04-03T00:27:59;7.75;;;3.15;;
20880;SDS011;10600;53.096;8.802;2023-04-03T00:29:00;8.07;;;2.67;;
20880;SDS011;10600;53.096;8.802;2023-04-03T00:30:01;6.47;;;3.10;;
20880;SDS011;10600;53.096;8.802;2023-04-03T00:31:02;10.38;;;2.83;;
20880;SDS011;10600;53.096;8.802;2023-04-03T00:32:03;7.63;;;2.88;;
20880;SDS011;10600;53.096;8.802;2023-04-03T00:33:03;9.82;;;2.72;;
20880;SDS011;10600;53.096;8.802;2023-04-03T00:34:04;8.55;;;2.83;;
20880;SDS011;10600;53.096;8.802;2023-04-03T00:35:05;7.88;;;2.97;;
20880;SDS011;10600;53.096;8.802;2023-04-03T00:36:07;6.57;;;3.47;;
20880;SDS011;10600;53.096;8.802;2023-04-03T00:37:09;6.65;;;2.85;;
20880;SDS011;10600;53.096;8.802;2023-04-03T00:38:10;11.10;;;3.70;;
20880;SDS011;10600;53.096;8.802;2023-04-03T00:39:10;10.77;;;4.07;;
20880;SDS011;10600;53.096;8.802;2023-04-03T00:40:11;8.88;;;3.65;;
20880;SDS011;10600;53.096;8.802;2023-04-03T00:41:14;8.35;;;3.80;;
20880;SDS011;10600;53.096;8.802;2023-04-03T00:42:14;9.98;;;3.72;;
20880;SDS011;10600;53.096;8.802;2023-04-03T00:43:18;7.45;;;3.33;;
20880;SDS011;10600;53.096;8.802;2023-04-03T00:44:21;9.77;;;3.85;;
20880;SDS011;10600;53.096;8.802;2023-04-03T00:46:39;13.10;;;5.40;;
20880;SDS011;10600;53.096;8.802;2023-04-03T00:47:39;9.40;;;3.58;;
20880;SDS011;10600;53.096;8.802;2023-04-03T00:48:45;9.07;;;4.00;;
20880;SDS011;10600;53.096;8.802;2023-04-03T00:49:47;8.52;;;4.00;;
20880;SDS011;10600;53.096;8.802;2023-04-03T00:50:48;9.48;;;3.70;;
20880;SDS011;10600;53.096;8.802;2023-04-03T00:51:50;8.88;;;3.83;;
20880;SDS011;10600;53.096;8.802;2023-04-03T00:52:51;11.52;;;3.70;;
20880;SDS011;10600;53.096;8.802;2023-04-03T00:53:54;14.05;;;4.07;;
20880;SDS011;10600;53.096;8.802;2023-04-03T00:55:00;6.32;;;3.42;;
20880;SDS011;10600;53.096;8.802;2023-04-03T00:56:07;9.93;;;3.78;;
20880;SDS011;10600;53.096;8.802;2023-04-03T00:57:10;10.75;;;4.00;;
20880;SDS011;10600;53.096;8.802;2023-04-03T00:58:11;7.88;;;3.70;;
20880;SDS011;10600;53.096;8.802;2023-04-03T00:59:16;15.27;;;4.53;;
20880;SDS011;10600;53.096;8.802;2023-04-03T01:00:26;15.48;;;5.15;;
20880;SDS011;10600;53.096;8.802;2023-04-03T01:01:28;12.98;;;3.83;;
20880;SDS011;10600;53.096;8.802;2023-04-03T01:02:29;9.48;;;4.15;;
20880;SDS011;10600;53.096;8.802;2023-04-03T01:03:30;8.75;;;3.95;;
20880;SDS011;10600;53.096;8.802;2023-04-03T01:04:35;9.02;;;3.58;;
20880;SDS011;10600;53.096;8.802;2023-04-03T01:05:38;8.70;;;4.05;;
20880;SDS011;10600;53.096;8.802;2023-04-03T01:06:40;8.90;;;4.32;;
20880;SDS011;10600;53.096;8.802;2023-04-03T01:07:41;10.88;;;3.75;;
20880;SDS011;10600;53.096;8.802;2023-04-03T01:08:41;13.38;;;3.60;;
20880;SDS011;10600;53.096;8.802;2023-04-03T01:09:42;6.15;;;4.13;;
20880;SDS011;10600;53.096;8.802;2023-04-03T01:10:45;7.20;;;3.40;;
20880;SDS011;10600;53.096;8.802;2023-04-03T01:11:45;10.45;;;3.55;;
20880;SDS011;10600;53.096;8.802;2023-04-03T01:12:47;8.02;;;3.90;;
20880;SDS011;10600;53.096;8.802;2023-04-03T01:13:50;9.23;;;3.75;;
20880;SDS011;10600;53.096;8.802;2023-04-03T01:14:52;9.00;;;3.97;;
20880;SDS011;10600;53.096;8.802;2023-04-03T01:15:54;12.43;;;3.95;;
20880;SDS011;10600;53.096;8.802;2023-04-03T01:16:55;11.50;;;4.50;;
20880;SDS011;10600;53.096;8.802;2023-04-03T01:17:56;6.47;;;3.17;;
20880;SDS011;10600;53.096;8.802;2023-04-03T01:18:58;9.15;;;3.65;;
20880;SDS011;10600;53.096;8.802;2023-04-03T01:21:53;8.10;;;3.40;;
20880;SDS011;10600;53.096;8.802;2023-04-03T01:24:36;12.32;;;4.18;;
20880;SDS011;10600;53.096;8.802;2023-04-03T01:25:42;7.10;;;3.92;;
20880;SDS011;10600;53.096;8.802;2023-04-03T01:26:47;11.18;;;3.75;;
20880;SDS011;10600;53.096;8.802;2023-04-03T01:27:49;8.82;;;3.50;;
20880;SDS011;10600;53.096;8.802;2023-04-03T01:28:49;8.90;;;3.78;;
20880;SDS011;10600;53.096;8.802;2023-04-03T01:29:50;12.43;;;3.65;;
20880;SDS011;10600;53.096;8.802;2023-04-03T01:32:25;12.30;;;4.30;;
20880;SDS011;10600;53.096;8.802;2023-04-03T01:33:25;10.15;;;3.53;;
20880;SDS011;10600;53.096;8.802;2023-04-03T01:34:26;11.43;;;3.83;;
20880;SDS011;10600;53.096;8.802;2023-04-03T01:35:28;6.68;;;3.22;;
20880;SDS011;10600;53.096;8.802;2023-04-03T01:36:29;14.43;;;4.10;;
20880;SDS011;10600;53.096;8.802;2023-04-03T01:37:31;11.02;;;4.03;;
20880;SDS011;10600;53.096;8.802;2023-04-03T01:38:32;13.43;;;3.58;;
20880;SDS011;10600;53.096;8.802;2023-04-03T01:39:32;6.57;;;3.45;;
20880;SDS011;10600;53.096;8.802;2023-04-03T01:40:33;12.77;;;3.70;;
20880;SDS011;10600;53.096;8.802;2023-04-03T01:41:34;15.10;;;4.05;;
20880;SDS011;10600;53.096;8.802;2023-04-03T01:42:35;8.57;;;3.83;;
20880;SDS011;10600;53.096;8.802;2023-04-03T01:43:35;9.30;;;3.53;;
20880;SDS011;10600;53.096;8.802;2023-04-03T01:44:36;7.90;;;3.80;;
20880;SDS011;10600;53.096;8.802;2023-04-03T01:45:37;6.95;;;4.07;;
20880;SDS011;10600;53.096;8.802;2023-04-03T01:46:37;12.68;;;4.03;;
20880;SDS011;10600;53.096;8.802;2023-04-03T01:47:38;14.13;;;3.90;;
20880;SDS011;10600;53.096;8.802;2023-04-03T01:48:38;9.90;;;3.78;;
20880;SDS011;10600;53.096;8.802;2023-04-03T01:49:39;13.00;;;3.80;;
20880;SDS011;10600;53.096;8.802;2023-04-03T01:50:40;11.00;;;3.67;;
20880;SDS011;10600;53.096;8.802;2023-04-03T01:51:41;8.25;;;3.28;;
20880;SDS011;10600;53.096;8.802;2023-04-03T01:52:41;10.27;;;3.28;;
20880;SDS011;10600;53.096;8.802;2023-04-03T01:53:42;13.77;;;4.47;;
20880;SDS011;10600;53.096;8.802;2023-04-03T01:54:42;9.35;;;3.78;;
20880;SDS011;10600;53.096;8.802;2023-04-03T01:55:43;10.20;;;4.20;;
20880;SDS011;10600;53.096;8.802;2023-04-03T01:56:44;9.05;;;3.78;;
20880;SDS011;10600;53.096;8.802;2023-04-03T01:57:44;9.68;;;3.60;;
20880;SDS011;10600;53.096;8.802;2023-04-03T01:58:45;10.82;;;3.95;;
20880;SDS011;10600;53.096;8.802;2023-04-03T01:59:45;11.60;;;4.03;;
20880;SDS011;10600;53.096;8.802;2023-04-03T02:00:46;8.15;;;3.50;;
20880;SDS011;10600;53.096;8.802;2023-04-03T02:01:47;8.55;;;3.60;;
20880;SDS011;10600;53.096;8.802;2023-04-03T02:02:48;9.68;;;3.78;;
20880;SDS011;10600;53.096;8.802;2023-04-03T02:03:49;8.75;;;3.72;;
20880;SDS011;10600;53.096;8.802;2023-04-03T02:04:49;9.95;;;3.85;;
20880;SDS011;10600;53.096;8.802;2023-04-03T02:05:50;9.50;;;4.10;;
20880;SDS011;10600;53.096;8.802;2023-04-03T02:06:50;11.40;;;4.13;;
20880;SDS011;10600;53.096;8.802;2023-04-03T02:07:51;14.15;;;3.90;;
20880;SDS011;10600;53.096;8.802;2023-04-03T02:08:52;11.70;;;3.92;;
20880;SDS011;10600;53.096;8.802;2023-04-03T02:09:52;8.27;;;3.80;;
20880;SDS011;10600;53.096;8.802;2023-04-03T02:10:53;9.73;;;4.13;;
20880;SDS011;10600;53.096;8.802;2023-04-03T02:11:54;15.95;;;4.53;;
20880;SDS011;10600;53.096;8.802;2023-04-03T02:12:55;9.38;;;4.68;;
20880;SDS011;10600;53.096;8.802;2023-04-03T02:13:55;10.57;;;3.92;;
20880;SDS011;10600;53.096;8.802;2023-04-03T02:14:56;10.00;;;4.50;;
20880;SDS011;10600;53.096;8.802;2023-04-03T02:15:56;9.27;;;4.38;;
20880;SDS011;10600;53.096;8.802;2023-04-03T02:16:57;8.63;;;4.03;;
20880;SDS011;10600;53.096;8.802;2023-04-03T02:18:00;11.48;;;4.00;;
20880;SDS011;10600;53.096;8.802;2023-04-03T02:19:01;14.15;;;4.55;;
20880;SDS011;10600;53.096;8.802;2023-04-03T02:20:02;9.82;;;4.43;;
20880;SDS011;10600;53.096;8.802;2023-04-03T02:21:03;8.75;;;4.20;;
20880;SDS011;10600;53.096;8.802;2023-04-03T02:22:04;10.35;;;3.85;;
20880;SDS011;10600;53.096;8.802;2023-04-03T02:23:05;13.48;;;4.93;;
20880;SDS011;10600;53.096;8.802;2023-04-03T02:24:06;12.80;;;4.50;;
20880;SDS011;10600;53.096;8.802;2023-04-03T02:25:07;10.32;;;4.30;;
20880;SDS011;10600;53.096;8.802;2023-04-03T02:26:09;10.27;;;4.10;;
20880;SDS011;10600;53.096;8.802;2023-04-03T02:27:11;10.65;;;4.25;;
20880;SDS011;10600;53.096;8.802;2023-04-03T02:28:11;13.15;;;4.75;;
20880;SDS011;10600;53.096;8.802;2023-04-03T02:29:12;7.40;;;4.03;;
20880;SDS011;10600;53.096;8.802;2023-04-03T02:30:13;10.40;;;4.28;;
20880;SDS011;10600;53.096;8.802;2023-04-03T02:31:14;8.90;;;4.40;;
20880;SDS011;10600;53.096;8.802;2023-04-03T02:32:15;9.23;;;4.40;;
20880;SDS011;10600;53.096;8.802;2023-04-03T02:33:16;12.13;;;4.68;;
20880;SDS011;10600;53.096;8.802;2023-04-03T02:34:16;9.60;;;4.38;;
20880;SDS011;10600;53.096;8.802;2023-04-03T02:35:17;11.23;;;4.55;;
20880;SDS011;10600;53.096;8.802;2023-04-03T02:36:18;11.07;;;5.72;;
20880;SDS011;10600;53.096;8.802;2023-04-03T02:37:19;14.32;;;5.28;;
20880;SDS011;10600;53.096;8.802;2023-04-03T02:38:21;11.30;;;4.80;;
20880;SDS011;10600;53.096;8.802;2023-04-03T02:39:22;13.63;;;5.30;;
20880;SDS011;10600;53.096;8.802;2023-04-03T02:40:22;8.25;;;4.38;;
20880;SDS011;10600;53.096;8.802;2023-04-03T02:41:23;12.40;;;4.68;;
20880;SDS011;10600;53.096;8.802;2023-04-03T02:42:25;10.35;;;4.45;;
20880;SDS011;10600;53.096;8.802;2023-04-03T02:43:26;9.85;;;4.70;;
20880;SDS011;10600;53.096;8.802;2023-04-03T02:44:27;10.43;;;4.60;;
20880;SDS011;10600;53.096;8.802;2023-04-03T02:45:27;13.82;;;4.93;;
20880;SDS011;10600;53.096;8.802;2023-04-03T02:46:28;9.40;;;4.82;;
20880;SDS011;10600;53.096;8.802;2023-04-03T02:47:28;14.07;;;4.35;;
20880;SDS011;10600;53.096;8.802;2023-04-03T02:48:29;12.10;;;4.85;;
20880;SDS011;10600;53.096;8.802;2023-04-03T02:49:30;14.90;;;5.15;;
20880;SDS011;10600;53.096;8.802;2023-04-03T02:50:31;12.65;;;4.70;;
20880;SDS011;10600;53.096;8.802;2023-04-03T02:51:32;12.05;;;5.22;;
20880;SDS011;10600;53.096;8.802;2023-04-03T02:52:32;10.68;;;4.85;;
20880;SDS011;10600;53.096;8.802;2023-04-03T02:53:33;16.20;;;5.20;;
20880;SDS011;10600;53.096;8.802;2023-04-03T02:54:34;13.70;;;5.13;;
20880;SDS011;10600;53.096;8.802;2023-04-03T02:55:35;11.38;;;4.80;;
20880;SDS011;10600;53.096;8.802;2023-04-03T02:56:35;10.02;;;5.22;;
20880;SDS011;10600;53.096;8.802;2023-04-03T02:57:36;10.88;;;5.47;;
20880;SDS011;10600;53.096;8.802;2023-04-03T02:58:37;9.68;;;5.43;;
20880;SDS011;10600;53.096;8.802;2023-04-03T02:59:37;12.10;;;5.57;;
20880;SDS011;10600;53.096;8.802;2023-04-03T03:00:41;10.15;;;4.60;;
20880;SDS011;10600;53.096;8.802;2023-04-03T03:01:42;9.88;;;4.95;;
20880;SDS011;10600;53.096;8.802;2023-04-03T03:02:43;12.18;;;5.22;;
20880;SDS011;10600;53.096;8.802;2023-04-03T03:03:43;11.80;;;5.50;;
20880;SDS011;10600;53.096;8.802;2023-04-03T03:04:44;11.60;;;4.75;;
20880;SDS011;10600;53.096;8.802;2023-04-03T03:05:45;11.75;;;5.05;;
20880;SDS011;10600;53.096;8.802;2023-04-03T03:06:45;12.63;;;5.10;;
20880;SDS011;10600;53.096;8.802;2023-04-03T03:07:46;14.30;;;5.72;;
20880;SDS011;10600;53.096;8.802;2023-04-03T03:08:47;13.18;;;5.47;;
20880;SDS011;10600;53.096;8.802;2023-04-03T03:09:48;11.40;;;5.10;;
20880;SDS011;10600;53.096;8.802;2023-04-03T03:10:48;13.23;;;6.53;;
20880;SDS011;10600;53.096;8.802;2023-04-03T03:11:51;12.10;;;4.95;;
20880;SDS011;10600;53.096;8.802;2023-04-03T03:12:51;13.43;;;5.85;;
20880;SDS011;10600;53.096;8.802;2023-04-03T03:13:52;15.88;;;6.53;;
20880;SDS011;10600;53.096;8.802;2023-04-03T03:14:53;17.05;;;7.05;;
20880;SDS011;10600;53.096;8.802;2023-04-03T03:15:53;12.73;;;5.75;;
20880;SDS011;10600;53.096;8.802;2023-04-03T03:16:54;13.45;;;5.57;;
20880;SDS011;10600;53.096;8.802;2023-04-03T03:17:55;16.08;;;5.85;;
20880;SDS011;10600;53.096;8.802;2023-04-03T03:18:55;12.93;;;5.68;;
20880;SDS011;10600;53.096;8.802;2023-04-03T03:19:56;9.80;;;5.95;;
20880;SDS011;10600;53.096;8.802;2023-04-03T03:20:57;11.38;;;5.28;;
20880;SDS011;10600;53.096;8.802;2023-04-03T03:21:59;18.10;;;7.03;;
20880;SDS011;10600;53.096;8.802;2023-04-03T03:22:59;11.10;;;4.88;;
20880;SDS011;10600;53.096;8.802;2023-04-03T03:24:00;12.60;;;5.38;;
20880;SDS011;10600;53.096;8.802;2023-04-03T03:25:01;13.77;;;5.57;;
20880;SDS011;10600;53.096;8.802;2023-04-03T03:26:04;15.52;;;5.57;;
20880;SDS011;10600;53.096;8.802;2023-04-03T03:27:06;11.73;;;5.05;;
20880;SDS011;10600;53.096;8.802;2023-04-03T03:28:07;15.80;;;6.70;;
20880;SDS011;10600;53.096;8.802;2023-04-03T03:29:08;12.93;;;5.38;;
20880;SDS011;10600;53.096;8.802;2023-04-03T03:30:09;11.73;;;6.22;;
20880;SDS011;10600;53.096;8.802;2023-04-03T03:31:10;14.32;;;5.90;;
20880;SDS011;10600;53.096;8.802;2023-04-03T03:32:11;16.35;;;5.75;;
20880;SDS011;10600;53.096;8.802;2023-04-03T03:33:11;13.65;;;5.20;;
20880;SDS011;10600;53.096;8.802;2023-04-03T03:34:12;11.32;;;5.50;;
20880;SDS011;10600;53.096;8.802;2023-04-03T03:35:13;18.02;;;5.32;;
20880;SDS011;10600;53.096;8.802;2023-04-03T03:36:13;14.65;;;5.55;;
20880;SDS011;10600;53.096;8.802;2023-04-03T03:37:14;12.48;;;5.43;;
20880;SDS011;10600;53.096;8.802;2023-04-03T03:38:15;14.00;;;5.38;;
20880;SDS011;10600;53.096;8.802;2023-04-03T03:39:15;14.40;;;5.80;;
20880;SDS011;10600;53.096;8.802;2023-04-03T03:40:16;13.00;;;5.28;;
20880;SDS011;10600;53.096;8.802;2023-04-03T03:41:17;13.32;;;5.60;;
20880;SDS011;10600;53.096;8.802;2023-04-03T03:42:18;9.27;;;5.57;;
20880;SDS011;10600;53.096;8.802;2023-04-03T03:43:18;16.50;;;5.75;;
20880;SDS011;10600;53.096;8.802;2023-04-03T03:44:20;16.50;;;5.60;;
20880;SDS011;10600;53.096;8.802;2023-04-03T03:45:21;13.38;;;6.07;;
20880;SDS011;10600;53.096;8.802;2023-04-03T03:46:22;11.38;;;5.50;;
20880;SDS011;10600;53.096;8.802;2023-04-03T03:47:22;13.73;;;5.82;;
20880;SDS011;10600;53.096;8.802;2023-04-03T03:48:23;12.57;;;6.15;;
20880;SDS011;10600;53.096;8.802;2023-04-03T03:49:23;15.18;;;6.20;;
20880;SDS011;10600;53.096;8.802;2023-04-03T03:50:24;15.70;;;5.55;;
20880;SDS011;10600;53.096;8.802;2023-04-03T03:51:25;16.75;;;5.40;;
20880;SDS011;10600;53.096;8.802;2023-04-03T03:52:25;16.27;;;5.20;;
20880;SDS011;10600;53.096;8.802;2023-04-03T03:53:26;9.95;;;5.78;;
20880;SDS011;10600;53.096;8.802;2023-04-03T03:54:27;13.63;;;5.90;;
20880;SDS011;10600;53.096;8.802;2023-04-03T03:55:27;13.63;;;6.55;;
20880;SDS011;10600;53.096;8.802;2023-04-03T03:56:28;18.30;;;5.93;;
20880;SDS011;10600;53.096;8.802;2023-04-03T03:57:29;16.23;;;6.10;;
20880;SDS011;10600;53.096;8.802;2023-04-03T03:58:30;10.75;;;5.68;;
20880;SDS011;10600;53.096;8.802;2023-04-03T03:59:31;10.57;;;5.15;;
20880;SDS011;10600;53.096;8.802;2023-04-03T04:00:31;14.88;;;5.82;;
20880;SDS011;10600;53.096;8.802;2023-04-03T04:01:32;11.90;;;5.38;;
20880;SDS011;10600;53.096;8.802;2023-04-03T04:02:33;13.73;;;6.03;;
20880;SDS011;10600;53.096;8.802;2023-04-03T04:03:34;16.70;;;6.45;;
20880;SDS011;10600;53.096;8.802;2023-04-03T04:04:34;9.70;;;5.25;;
20880;SDS011;10600;53.096;8.802;2023-04-03T04:05:35;13.82;;;6.00;;
20880;SDS011;10600;53.096;8.802;2023-04-03T04:06:36;13.75;;;6.35;;
20880;SDS011;10600;53.096;8.802;2023-04-03T04:07:36;11.48;;;5.72;;
20880;SDS011;10600;53.096;8.802;2023-04-03T04:08:37;20.17;;;6.20;;
20880;SDS011;10600;53.096;8.802;2023-04-03T04:09:38;15.23;;;6.00;;
20880;SDS011;10600;53.096;8.802;2023-04-03T04:10:38;17.05;;;7.00;;
20880;SDS011;10600;53.096;8.802;2023-04-03T04:11:39;14.35;;;5.95;;
20880;SDS011;10600;53.096;8.802;2023-04-03T04:12:40;18.63;;;6.55;;
20880;SDS011;10600;53.096;8.802;2023-04-03T04:13:40;19.27;;;7.22;;
20880;SDS011;10600;53.096;8.802;2023-04-03T04:14:41;12.65;;;6.78;;
20880;SDS011;10600;53.096;8.802;2023-04-03T04:15:42;17.10;;;7.43;;
20880;SDS011;10600;53.096;8.802;2023-04-03T04:16:43;15.18;;;6.78;;
20880;SDS011;10600;53.096;8.802;2023-04-03T04:17:44;17.35;;;6.70;;
20880;SDS011;10600;53.096;8.802;2023-04-03T04:18:44;16.80;;;6.88;;
20880;SDS011;10600;53.096;8.802;2023-04-03T04:19:45;17.13;;;7.10;;
20880;SDS011;10600;53.096;8.802;2023-04-03T04:20:46;15.65;;;6.88;;
20880;SDS011;10600;53.096;8.802;2023-04-03T04:21:46;14.05;;;6.63;;
20880;SDS011;10600;53.096;8.802;2023-04-03T04:22:47;21.08;;;7.80;;
20880;SDS011;10600;53.096;8.802;2023-04-03T04:23:47;13.88;;;6.82;;
20880;SDS011;10600;53.096;8.802;2023-04-03T04:24:48;17.00;;;7.30;;
20880;SDS011;10600;53.096;8.802;2023-04-03T04:25:49;18.05;;;8.57;;
20880;SDS011;10600;53.096;8.802;2023-04-03T04:26:50;13.85;;;6.95;;
20880;SDS011;10600;53.096;8.802;2023-04-03T04:27:51;17.90;;;7.18;;
20880;SDS011;10600;53.096;8.802;2023-04-03T04:28:51;14.82;;;7.50;;
20880;SDS011;10600;53.096;8.802;2023-04-03T04:29:52;16.80;;;7.53;;
20880;SDS011;10600;53.096;8.802;2023-04-03T04:30:52;22.58;;;8.57;;
20880;SDS011;10600;53.096;8.802;2023-04-03T04:31:53;16.05;;;7.57;;
20880;SDS011;10600;53.096;8.802;2023-04-03T04:32:54;20.63;;;7.50;;
20880;SDS011;10600;53.096;8.802;2023-04-03T04:33:55;21.63;;;8.52;;
20880;SDS011;10600;53.096;8.802;2023-04-03T04:34:55;18.50;;;8.45;;
20880;SDS011;10600;53.096;8.802;2023-04-03T04:35:56;19.42;;;7.97;;
20880;SDS011;10600;53.096;8.802;2023-04-03T04:36:57;24.50;;;8.60;;
20880;SDS011;10600;53.096;8.802;2023-04-03T04:37:57;20.60;;;8.27;;
20880;SDS011;10600;53.096;8.802;2023-04-03T04:38:58;16.60;;;8.65;;
20880;SDS011;10600;53.096;8.802;2023-04-03T04:39:59;16.95;;;8.90;;
20880;SDS011;10600;53.096;8.802;2023-04-03T04:40:59;18.42;;;8.48;;
20880;SDS011;10600;53.096;8.802;2023-04-03T04:42:00;21.13;;;8.35;;
20880;SDS011;10600;53.096;8.802;2023-04-03T04:43:01;14.50;;;7.90;;
20880;SDS011;10600;53.096;8.802;2023-04-03T04:44:01;23.50;;;8.85;;
20880;SDS011;10600;53.096;8.802;2023-04-03T04:45:02;15.23;;;7.45;;
20880;SDS011;10600;53.096;8.802;2023-04-03T04:46:04;14.95;;;8.15;;
20880;SDS011;10600;53.096;8.802;2023-04-03T04:47:09;20.65;;;7.43;;
20880;SDS011;10600;53.096;8.802;2023-04-03T04:48:10;15.13;;;7.43;;
20880;SDS011;10600;53.096;8.802;2023-04-03T04:49:10;22.67;;;8.80;;
20880;SDS011;10600;53.096;8.802;2023-04-03T04:50:11;16.08;;;7.72;;
20880;SDS011;10600;53.096;8.802;2023-04-03T04:51:12;18.45;;;7.50;;
20880;SDS011;10600;53.096;8.802;2023-04-03T04:52:12;20.55;;;7.72;;
20880;SDS011;10600;53.096;8.802;2023-04-03T04:53:13;17.05;;;8.05;;
20880;SDS011;10600;53.096;8.802;2023-04-03T04:54:14;16.05;;;7.43;;
20880;SDS011;10600;53.096;8.802;2023-04-03T04:55:14;17.05;;;7.95;;
20880;SDS011;10600;53.096;8.802;2023-04-03T04:56:15;20.15;;;7.43;;
20880;SDS011;10600;53.096;8.802;2023-04-03T04:57:16;16.55;;;6.85;;
20880;SDS011;10600;53.096;8.802;2023-04-03T04:58:17;12.68;;;7.25;;
20880;SDS011;10600;53.096;8.802;2023-04-03T04:59:18;12.43;;;7.90;;
20880;SDS011;10600;53.096;8.802;2023-04-03T05:00:19;19.05;;;7.88;;
20880;SDS011;10600;53.096;8.802;2023-04-03T05:01:19;17.10;;;7.22;;
20880;SDS011;10600;53.096;8.802;2023-04-03T05:02:20;19.83;;;7.88;;
20880;SDS011;10600;53.096;8.802;2023-04-03T05:03:21;19.23;;;8.50;;
20880;SDS011;10600;53.096;8.802;2023-04-03T05:04:21;25.95;;;8.13;;
20880;SDS011;10600;53.096;8.802;2023-04-03T05:05:22;17.85;;;8.18;;
20880;SDS011;10600;53.096;8.802;2023-04-03T05:06:23;16.80;;;8.02;;
20880;SDS011;10600;53.096;8.802;2023-04-03T05:07:24;15.48;;;7.70;;
20880;SDS011;10600;53.096;8.802;2023-04-03T05:08:24;18.35;;;7.82;;
20880;SDS011;10600;53.096;8.802;2023-04-03T05:09:25;20.77;;;7.53;;
20880;SDS011;10600;53.096;8.802;2023-04-03T05:10:26;14.20;;;7.65;;
20880;SDS011;10600;53.096;8.802;2023-04-03T05:11:26;13.10;;;7.10;;
20880;SDS011;10600;53.096;8.802;2023-04-03T05:12:27;14.07;;;7.75;;
20880;SDS011;10600;53.096;8.802;2023-04-03T05:13:28;13.80;;;7.63;;
20880;SDS011;10600;53.096;8.802;2023-04-03T05:14:29;21.52;;;8.93;;
20880;SDS011;10600;53.096;8.802;2023-04-03T05:15:30;17.05;;;7.53;;
20880;SDS011;10600;53.096;8.802;2023-04-03T05:16:30;13.65;;;7.22;;
20880;SDS011;10600;53.096;8.802;2023-04-03T05:17:31;16.20;;;7.90;;
20880;SDS011;10600;53.096;8.802;2023-04-03T05:18:32;18.75;;;8.45;;
20880;SDS011;10600;53.096;8.802;2023-04-03T05:19:32;16.85;;;7.68;;
20880;SDS011;10600;53.096;8.802;2023-04-03T05:20:33;20.55;;;9.90;;
20880;SDS011;10600;53.096;8.802;2023-04-03T05:21:34;21.20;;;9.90;;
20880;SDS011;10600;53.096;8.802;2023-04-03T05:22:35;23.10;;;9.55;;
20880;SDS011;10600;53.096;8.802;2023-04-03T05:23:36;23.45;;;9.90;;
20880;SDS011;10600;53.096;8.802;2023-04-03T05:24:36;19.77;;;9.93;;
20880;SDS011;10600;53.096;8.802;2023-04-03T05:25:37;21.02;;;9.32;;
20880;SDS011;10600;53.096;8.802;2023-04-03T05:26:38;20.13;;;9.38;;
20880;SDS011;10600;53.096;8.802;2023-04-03T05:27:39;24.98;;;10.80;;
20880;SDS011;10600;53.096;8.802;2023-04-03T05:28:39;17.85;;;10.07;;
20880;SDS011;10600;53.096;8.802;2023-04-03T05:29:40;24.25;;;11.10;;
20880;SDS011;10600;53.096;8.802;2023-04-03T05:30:43;24.08;;;10.40;;
20880;SDS011;10600;53.096;8.802;2023-04-03T05:31:44;18.80;;;8.82;;
20880;SDS011;10600;53.096;8.802;2023-04-03T05:32:45;18.50;;;9.35;;
20880;SDS011;10600;53.096;8.802;2023-04-03T05:33:45;19.30;;;8.60;;
20880;SDS011;10600;53.096;8.802;2023-04-03T05:34:46;18.98;;;8.90;;
20880;SDS011;10600;53.096;8.802;2023-04-03T05:35:47;16.17;;;8.50;;
20880;SDS011;10600;53.096;8.802;2023-04-03T05:36:48;17.45;;;8.77;;
20880;SDS011;10600;53.096;8.802;2023-04-03T05:37:48;21.38;;;8.80;;
20880;SDS011;10600;53.096;8.802;2023-04-03T05:38:49;23.30;;;9.48;;
20880;SDS011;10600;53.096;8.802;2023-04-03T05:39:50;17.80;;;9.05;;
20880;SDS011;10600;53.096;8.802;2023-04-03T05:40:50;21.15;;;8.23;;
20880;SDS011;10600;53.096;8.802;2023-04-03T05:41:51;23.38;;;9.60;;
20880;SDS011;10600;53.096;8.802;2023-04-03T05:42:52;19.42;;;8.27;;
20880;SDS011;10600;53.096;8.802;2023-04-03T05:43:53;18.83;;;8.50;;
20880;SDS011;10600;53.096;8.802;2023-04-03T05:44:55;18.90;;;9.40;;
20880;SDS011;10600;53.096;8.802;2023-04-03T05:45:56;18.83;;;9.38;;
20880;SDS011;10600;53.096;8.802;2023-04-03T05:46:56;20.73;;;8.98;;
20880;SDS011;10600;53.096;8.802;2023-04-03T05:47:57;15.43;;;8.23;;
20880;SDS011;10600;53.096;8.802;2023-04-03T05:48:57;21.52;;;8.60;;
20880;SDS011;10600;53.096;8.802;2023-04-03T05:49:58;18.52;;;7.38;;
20880;SDS011;10600;53.096;8.802;2023-04-03T05:50:59;19.63;;;8.82;;
20880;SDS011;10600;53.096;8.802;2023-04-03T05:52:00;14.77;;;8.60;;
20880;SDS011;10600;53.096;8.802;2023-04-03T05:53:01;18.52;;;9.20;;
20880;SDS011;10600;53.096;8.802;2023-04-03T05:54:12;16.95;;;8.52;;
20880;SDS011;10600;53.096;8.802;2023-04-03T05:55:24;15.15;;;8.20;;
20880;SDS011;10600;53.096;8.802;2023-04-03T05:56:25;18.88;;;8.55;;
20880;SDS011;10600;53.096;8.802;2023-04-03T05:57:25;19.48;;;8.18;;
20880;SDS011;10600;53.096;8.802;2023-04-03T05:58:26;19.92;;;9.00;;
20880;SDS011;10600;53.096;8.802;2023-04-03T05:59:27;13.50;;;7.80;;
20880;SDS011;10600;53.096;8.802;2023-04-03T06:00:27;16.80;;;8.55;;
20880;SDS011;10600;53.096;8.802;2023-04-03T06:01:28;19.45;;;8.73;;
20880;SDS011;10600;53.096;8.802;2023-04-03T06:02:29;16.63;;;8.50;;
20880;SDS011;10600;53.096;8.802;2023-04-03T06:03:31;18.63;;;9.50;;
20880;SDS011;10600;53.096;8.802;2023-04-03T06:04:32;18.40;;;8.77;;
20880;SDS011;10600;53.096;8.802;2023-04-03T06:05:32;20.42;;;8.80;;
20880;SDS011;10600;53.096;8.802;2023-04-03T06:06:46;21.15;;;8.93;;
20880;SDS011;10600;53.096;8.802;2023-04-03T06:07:51;18.88;;;8.70;;
20880;SDS011;10600;53.096;8.802;2023-04-03T06:08:52;17.10;;;9.43;;
20880;SDS011;10600;53.096;8.802;2023-04-03T06:09:53;19.60;;;8.60;;
20880;SDS011;10600;53.096;8.802;2023-04-03T06:10:55;17.05;;;7.93;;